Time;durP1;ratioP1;P1;durP2;ratioP2;P2;SDS_P1;SDS_P2;PMS_P1;PMS_P2;Temp;Humidity;BMP_temperature;BMP_pressure;BME280_temperature;BME280_humidity;BME280_pressure;Samples;Min_cycle;Max_cycle;Signal;HPM_P1;HPM_P2
2021/01/10 00:00:23;;;;;;;24.60;15.27;;;0.40;99.90;;;;;;6186901;23;20480;-80
2021/01/10 00:02:50;;;;;;;22.25;14.02;;;0.20;99.90;;;;;;6187340;23;20027;-80
2021/01/10 00:05:25;;;;;;;23.40;14.23;;;0.20;99.90;;;;;;6187421;23;20061;-80
2021/01/10 00:07:52;;;;;;;25.20;16.63;;;0.00;99.90;;;;;;6186974;23;20063;-79
2021/01/10 00:10:19;;;;;;;24.75;15.45;;;0.00;99.90;;;;;;6186963;23;20052;-80
2021/01/10 00:12:45;;;;;;;23.77;14.23;;;0.00;99.90;;;;;;6185396;23;20075;-79
2021/01/10 00:15:14;;;;;;;19.60;13.13;;;0.00;99.90;;;;;;6185599;23;20093;-80
2021/01/10 00:17:43;;;;;;;19.73;13.43;;;0.10;99.90;;;;;;6185777;23;20025;-79
2021/01/10 00:20:11;;;;;;;22.65;14.13;;;0.20;99.90;;;;;;6186014;23;20095;-80
2021/01/10 00:22:37;;;;;;;19.90;12.98;;;0.20;99.90;;;;;;6185916;23;20025;-80
2021/01/10 00:25:12;;;;;;;27.75;16.35;;;0.20;99.90;;;;;;6185585;23;20025;-80
2021/01/10 00:27:40;;;;;;;26.60;15.10;;;0.20;99.90;;;;;;6186974;23;20017;-79
2021/01/10 00:30:12;;;;;;;26.88;16.30;;;0.20;99.90;;;;;;6186617;23;20021;-79
2021/01/10 00:32:47;;;;;;;23.27;14.77;;;0.20;99.90;;;;;;6185863;23;20021;-79
2021/01/10 00:35:15;;;;;;;26.88;15.43;;;0.20;99.90;;;;;;6185451;23;20017;-79
2021/01/10 00:37:55;;;;;;;24.13;15.13;;;0.10;99.90;;;;;;6186552;23;20025;-80
2021/01/10 00:40:22;;;;;;;22.45;13.52;;;0.20;99.90;;;;;;6187010;23;20021;-80
2021/01/10 00:42:49;;;;;;;22.92;13.82;;;0.20;99.90;;;;;;6186826;23;20056;-80
2021/01/10 00:45:17;;;;;;;22.40;13.70;;;0.20;99.90;;;;;;6185837;23;20025;-79
2021/01/10 00:47:43;;;;;;;19.38;13.05;;;0.10;99.90;;;;;;6186810;23;20017;-80
2021/01/10 00:50:11;;;;;;;18.92;12.32;;;0.10;99.90;;;;;;6186098;23;20017;-79
2021/01/10 00:52:37;;;;;;;20.88;14.10;;;0.20;99.90;;;;;;6186775;23;20023;-80
2021/01/10 00:55:06;;;;;;;23.08;14.95;;;0.30;99.90;;;;;;6186775;23;20333;-80
2021/01/10 00:57:32;;;;;;;20.50;14.23;;;0.30;99.90;;;;;;6186403;23;20103;-80
2021/01/10 00:59:59;;;;;;;17.45;12.40;;;0.30;99.90;;;;;;6185557;23;20100;-80
2021/01/10 01:02:25;;;;;;;19.52;13.00;;;0.30;99.90;;;;;;6186512;23;20021;-79
2021/01/10 01:04:52;;;;;;;17.30;12.07;;;0.30;99.90;;;;;;6187156;23;20467;-80
2021/01/10 01:07:18;;;;;;;15.82;11.40;;;0.30;99.90;;;;;;6192000;23;20091;-80
2021/01/10 01:09:44;;;;;;;17.92;11.60;;;0.30;99.90;;;;;;6186536;23;20036;-79
2021/01/10 01:12:24;;;;;;;17.73;12.07;;;0.20;99.90;;;;;;6184928;23;20025;-78
2021/01/10 01:14:50;;;;;;;16.45;11.65;;;0.10;99.90;;;;;;6186384;23;20440;-79
2021/01/10 01:17:18;;;;;;;18.73;12.85;;;0.00;99.90;;;;;;6185073;23;20397;-79
2021/01/10 01:19:45;;;;;;;18.45;11.63;;;0.00;99.90;;;;;;6186416;23;20017;-80
2021/01/10 01:22:11;;;;;;;18.65;12.27;;;0.00;99.90;;;;;;6186026;23;20021;-79
2021/01/10 01:24:37;;;;;;;17.92;11.70;;;0.10;99.90;;;;;;6186401;23;20028;-79
2021/01/10 01:27:04;;;;;;;18.33;11.55;;;0.20;99.90;;;;;;6186423;23;20017;-79
2021/01/10 01:29:30;;;;;;;18.40;11.98;;;0.20;99.90;;;;;;6186370;23;20021;-79
2021/01/10 01:31:56;;;;;;;19.05;12.55;;;0.20;99.90;;;;;;6186065;23;20025;-79
2021/01/10 01:34:23;;;;;;;16.63;11.90;;;0.20;99.90;;;;;;6184972;23;20093;-79
2021/01/10 01:36:49;;;;;;;22.13;12.98;;;0.10;99.90;;;;;;6186049;23;20052;-79
2021/01/10 01:39:15;;;;;;;19.98;12.77;;;0.00;99.90;;;;;;6184577;23;20024;-80
2021/01/10 01:41:41;;;;;;;22.42;14.57;;;-0.10;99.90;;;;;;6186347;23;20356;-79
2021/01/10 01:44:08;;;;;;;23.88;14.50;;;-0.10;99.90;;;;;;6186479;23;20321;-79
2021/01/10 01:46:36;;;;;;;23.17;14.13;;;-0.20;99.90;;;;;;6184575;23;20060;-79
2021/01/10 01:49:07;;;;;;;24.25;13.60;;;-0.20;99.90;;;;;;6186305;23;20021;-80
2021/01/10 01:51:35;;;;;;;22.35;13.80;;;-0.30;99.90;;;;;;6184923;23;20482;-79
2021/01/10 01:54:03;;;;;;;24.58;15.40;;;-0.30;99.90;;;;;;6186492;23;20075;-79
2021/01/10 01:56:30;;;;;;;22.75;13.88;;;-0.30;99.90;;;;;;6186153;23;20021;-79
2021/01/10 01:59:11;;;;;;;24.52;14.18;;;-0.20;99.90;;;;;;6186494;23;20025;-79
2021/01/10 02:01:38;;;;;;;21.65;12.95;;;-0.20;99.90;;;;;;6184411;23;20020;-79
2021/01/10 02:04:22;;;;;;;22.55;13.50;;;-0.20;99.90;;;;;;6186611;23;20025;-79
2021/01/10 02:07:20;;;;;;;21.40;13.68;;;-0.20;99.90;;;;;;6184838;23;20356;-79
2021/01/10 02:10:01;;;;;;;21.08;12.27;;;-0.20;99.90;;;;;;6173525;23;20021;-79
2021/01/10 02:12:29;;;;;;;18.02;11.77;;;-0.10;99.90;;;;;;6185644;23;20032;-79
2021/01/10 02:15:10;;;;;;;19.23;11.93;;;0.00;99.90;;;;;;6160329;23;20025;-79
2021/01/10 02:17:41;;;;;;;19.75;12.35;;;0.00;99.90;;;;;;6160149;23;20486;-79
2021/01/10 02:20:10;;;;;;;20.08;12.30;;;0.00;99.90;;;;;;6185829;23;20120;-79
2021/01/10 02:22:53;;;;;;;19.42;12.85;;;0.10;99.90;;;;;;6185218;23;20020;-79
2021/01/10 02:25:21;;;;;;;18.65;12.07;;;0.10;99.90;;;;;;6185899;23;20079;-79
2021/01/10 02:27:48;;;;;;;18.92;11.90;;;0.00;99.90;;;;;;6185287;23;20532;-79
2021/01/10 02:30:16;;;;;;;20.48;12.45;;;-0.10;99.90;;;;;;6185927;23;20025;-80
2021/01/10 02:32:46;;;;;;;20.33;12.43;;;-0.20;99.90;;;;;;6186162;23;20449;-79
2021/01/10 02:35:14;;;;;;;19.75;12.77;;;-0.30;99.90;;;;;;6185706;23;20021;-79
2021/01/10 02:38:21;;;;;;;18.27;12.32;;;-0.20;99.90;;;;;;6185744;23;20021;-79
2021/01/10 02:41:21;;;;;;;21.67;13.40;;;-0.10;99.90;;;;;;6185888;23;20116;-79
2021/01/10 02:44:03;;;;;;;20.58;12.80;;;-0.30;99.90;;;;;;6185268;23;20029;-80
2021/01/10 02:46:32;;;;;;;20.67;12.65;;;-0.30;99.90;;;;;;6186104;23;20351;-78
2021/01/10 02:48:59;;;;;;;22.65;13.23;;;-0.20;99.90;;;;;;6185580;23;20491;-80
2021/01/10 02:51:25;;;;;;;22.63;13.10;;;-0.30;99.90;;;;;;6161338;23;20056;-80
2021/01/10 02:53:51;;;;;;;20.27;12.45;;;-0.30;99.90;;;;;;6166169;23;20101;-80
2021/01/10 02:56:18;;;;;;;22.50;13.23;;;-0.20;99.90;;;;;;6190793;23;20017;-80
2021/01/10 02:58:44;;;;;;;18.77;12.60;;;-0.20;99.90;;;;;;6185299;23;20048;-79
2021/01/10 03:01:14;;;;;;;21.25;12.57;;;-0.20;99.90;;;;;;6184997;23;20498;-79
2021/01/10 03:03:41;;;;;;;17.20;11.93;;;-0.20;99.90;;;;;;6185024;23;20025;-80
2021/01/10 03:06:08;;;;;;;19.02;12.02;;;-0.20;99.90;;;;;;6185264;23;20064;-80
2021/01/10 03:08:35;;;;;;;20.35;12.52;;;-0.20;99.90;;;;;;6185225;23;20417;-79
2021/01/10 03:11:02;;;;;;;23.77;13.25;;;-0.20;99.90;;;;;;6184781;23;20021;-79
2021/01/10 03:13:28;;;;;;;23.17;13.18;;;-0.30;99.90;;;;;;6184301;23;20028;-79
2021/01/10 03:15:55;;;;;;;24.98;13.75;;;-0.30;99.90;;;;;;6158978;23;20028;-79
2021/01/10 03:18:23;;;;;;;22.50;12.95;;;-0.40;99.90;;;;;;6159140;23;20104;-78
2021/01/10 03:20:49;;;;;;;20.40;11.93;;;-0.40;99.90;;;;;;6159385;23;20075;-79
2021/01/10 03:23:16;;;;;;;20.67;12.57;;;-0.30;99.90;;;;;;6185310;23;20075;-80
2021/01/10 03:25:43;;;;;;;19.67;12.07;;;-0.20;99.90;;;;;;6185322;23;20343;-80
2021/01/10 03:28:10;;;;;;;17.73;11.43;;;-0.10;99.90;;;;;;6158902;23;20088;-79
2021/01/10 03:30:37;;;;;;;16.15;11.10;;;-0.20;99.90;;;;;;6185458;23;20096;-79
2021/01/10 03:33:04;;;;;;;21.85;12.18;;;-0.10;99.90;;;;;;6185652;23;20025;-79
2021/01/10 03:35:31;;;;;;;18.98;12.15;;;0.00;99.90;;;;;;6185555;23;20017;-79
2021/01/10 03:37:57;;;;;;;19.52;12.32;;;0.00;99.90;;;;;;6159190;23;20025;-79
2021/01/10 03:40:23;;;;;;;17.15;11.43;;;0.10;99.90;;;;;;6184947;23;20063;-79
2021/01/10 03:42:49;;;;;;;17.13;11.63;;;0.10;99.90;;;;;;6185200;23;20028;-79
2021/01/10 03:45:17;;;;;;;17.80;11.23;;;0.10;99.90;;;;;;6185534;23;20025;-80
2021/01/10 03:47:44;;;;;;;16.08;11.40;;;0.10;99.90;;;;;;6185798;23;20376;-79
2021/01/10 03:50:10;;;;;;;18.58;12.18;;;0.00;99.90;;;;;;6159246;23;20452;-80
2021/01/10 03:52:38;;;;;;;19.23;12.25;;;0.00;99.90;;;;;;6184954;23;20021;-79
2021/01/10 03:55:06;;;;;;;18.80;12.00;;;0.10;99.90;;;;;;6158970;23;20135;-80
2021/01/10 03:57:35;;;;;;;18.65;12.25;;;0.10;99.90;;;;;;6158901;23;20053;-79
2021/01/10 04:00:04;;;;;;;16.85;11.85;;;0.10;99.90;;;;;;6185637;23;20097;-79
2021/01/10 04:02:30;;;;;;;16.02;11.57;;;0.10;99.90;;;;;;6159134;23;20092;-79
2021/01/10 04:04:57;;;;;;;22.90;12.68;;;0.10;99.90;;;;;;6185487;23;20024;-79
2021/01/10 04:07:24;;;;;;;19.83;12.00;;;0.10;99.90;;;;;;6185683;23;20028;-80
2021/01/10 04:09:50;;;;;;;17.15;10.75;;;0.10;99.90;;;;;;6185508;23;20075;-79
2021/01/10 04:12:16;;;;;;;17.92;11.95;;;0.10;99.90;;;;;;6185531;23;20021;-79
2021/01/10 04:14:42;;;;;;;17.92;11.55;;;0.10;99.90;;;;;;6159571;23;20032;-79
2021/01/10 04:17:09;;;;;;;19.08;12.45;;;0.10;99.90;;;;;;6159462;23;20101;-79
2021/01/10 04:19:36;;;;;;;16.88;11.57;;;0.10;99.90;;;;;;6159628;23;20412;-79
2021/01/10 04:22:02;;;;;;;21.25;12.25;;;0.10;99.90;;;;;;6185346;23;20032;-79
2021/01/10 04:24:28;;;;;;;18.73;11.95;;;0.00;99.90;;;;;;6160072;23;20025;-79
2021/01/10 04:26:55;;;;;;;17.25;11.13;;;0.10;99.90;;;;;;6187609;23;20029;-79
2021/01/10 04:29:21;;;;;;;17.38;11.60;;;0.00;99.90;;;;;;6187465;23;20075;-79
2021/01/10 04:31:50;;;;;;;16.38;11.50;;;0.10;99.90;;;;;;6187469;23;20355;-79
2021/01/10 04:34:17;;;;;;;16.40;11.43;;;0.10;99.90;;;;;;6161140;23;20621;-79
2021/01/10 04:36:44;;;;;;;16.63;11.25;;;0.10;99.90;;;;;;6161203;23;20048;-79
2021/01/10 04:39:13;;;;;;;20.30;11.75;;;0.10;99.90;;;;;;6168015;23;20073;-80
2021/01/10 04:41:41;;;;;;;17.27;12.10;;;0.20;99.90;;;;;;6193896;23;20025;-80
2021/01/10 04:44:08;;;;;;;16.13;11.30;;;0.20;99.90;;;;;;6167747;23;20056;-80
2021/01/10 04:46:35;;;;;;;20.73;12.57;;;0.20;99.90;;;;;;6161088;23;20025;-80
2021/01/10 04:49:02;;;;;;;19.02;12.07;;;0.20;99.90;;;;;;6186493;23;20017;-79
2021/01/10 04:51:29;;;;;;;17.05;11.73;;;0.30;99.90;;;;;;6160059;23;20071;-80
2021/01/10 04:53:58;;;;;;;17.35;11.60;;;0.30;99.90;;;;;;6186235;23;20028;-80
2021/01/10 04:56:28;;;;;;;19.00;12.45;;;0.20;99.90;;;;;;6186189;23;20053;-79
2021/01/10 04:58:59;;;;;;;20.33;12.50;;;0.10;99.90;;;;;;6186791;23;20025;-79
2021/01/10 05:01:31;;;;;;;21.63;12.20;;;0.10;99.90;;;;;;6186820;23;20067;-79
2021/01/10 05:03:58;;;;;;;19.88;11.82;;;0.10;99.90;;;;;;6160533;23;20083;-79
2021/01/10 05:06:25;;;;;;;17.73;11.50;;;0.10;99.90;;;;;;6186977;23;20066;-79
2021/01/10 05:08:53;;;;;;;19.92;12.45;;;0.10;99.90;;;;;;6160627;23;20100;-79
2021/01/10 05:11:20;;;;;;;18.05;11.05;;;0.00;99.90;;;;;;6160688;23;20063;-79
2021/01/10 05:13:46;;;;;;;19.65;11.95;;;0.00;99.90;;;;;;6180669;23;20021;-80
2021/01/10 05:16:21;;;;;;;17.35;11.90;;;0.00;99.90;;;;;;6186941;23;20071;-80
2021/01/10 05:18:52;;;;;;;17.88;11.90;;;0.00;99.90;;;;;;6186411;23;20075;-80
2021/01/10 05:21:20;;;;;;;20.75;12.68;;;0.00;99.90;;;;;;6186530;23;20025;-81
2021/01/10 05:23:53;;;;;;;18.23;12.25;;;0.10;99.90;;;;;;6187173;23;20392;-80
2021/01/10 05:26:20;;;;;;;21.60;13.02;;;0.10;99.90;;;;;;6186899;23;20025;-80
2021/01/10 05:28:49;;;;;;;18.45;11.38;;;0.20;99.90;;;;;;6186925;23;20079;-80
2021/01/10 05:31:32;;;;;;;19.33;11.88;;;0.20;99.90;;;;;;6186642;23;20075;-80
2021/01/10 05:34:00;;;;;;;17.85;11.18;;;0.10;99.90;;;;;;6185475;23;20047;-80
2021/01/10 05:36:31;;;;;;;20.08;12.20;;;0.10;99.90;;;;;;6184200;23;20044;-80
2021/01/10 05:39:16;;;;;;;21.52;12.00;;;0.10;99.90;;;;;;6186880;23;20025;-80
2021/01/10 05:41:51;;;;;;;21.60;12.15;;;0.10;99.90;;;;;;6186539;23;20072;-80
2021/01/10 05:44:18;;;;;;;19.88;12.82;;;0.10;99.90;;;;;;6186181;23;20029;-80
2021/01/10 05:46:44;;;;;;;19.25;11.93;;;0.10;99.90;;;;;;6187454;23;20056;-81
2021/01/10 05:49:21;;;;;;;17.25;11.60;;;0.00;99.90;;;;;;6185231;23;20017;-80
2021/01/10 05:51:48;;;;;;;20.65;12.00;;;0.00;99.90;;;;;;6186313;23;20456;-80
2021/01/10 05:54:43;;;;;;;18.58;12.43;;;0.00;99.90;;;;;;6185225;23;20348;-80
2021/01/10 05:57:10;;;;;;;;;;;0.00;99.90;;;;;;6186778;23;20021;-80
2021/01/10 05:59:47;;;;;;;17.88;11.85;;;0.00;99.90;;;;;;6186852;23;19916;-80
2021/01/10 06:02:26;;;;;;;19.20;12.32;;;0.00;99.90;;;;;;6186630;23;20052;-80
2021/01/10 06:05:06;;;;;;;19.27;12.05;;;-0.10;99.90;;;;;;6186483;23;20024;-80
2021/01/10 06:07:32;;;;;;;22.05;14.05;;;-0.10;99.90;;;;;;6186185;23;20104;-80
2021/01/10 06:09:59;;;;;;;18.63;12.00;;;-0.10;99.90;;;;;;6186449;23;20092;-80
2021/01/10 06:12:25;;;;;;;18.58;11.77;;;-0.10;99.90;;;;;;6184741;23;20048;-80
2021/01/10 06:15:14;;;;;;;19.63;12.30;;;-0.10;99.90;;;;;;6186700;23;20032;-80
2021/01/10 06:17:48;;;;;;;21.27;12.60;;;-0.10;99.90;;;;;;6184951;23;20099;-80
2021/01/10 06:20:27;;;;;;;17.75;11.57;;;-0.10;99.90;;;;;;6186313;23;20377;-80
2021/01/10 06:22:56;;;;;;;19.17;11.27;;;-0.10;99.90;;;;;;6184784;23;20025;-80
2021/01/10 06:25:24;;;;;;;20.33;12.65;;;-0.10;99.90;;;;;;6186755;23;20017;-81
2021/01/10 06:28:14;;;;;;;16.30;12.05;;;-0.10;99.90;;;;;;6193977;23;20355;-81
2021/01/10 06:30:55;;;;;;;18.83;11.98;;;-0.10;99.90;;;;;;6194824;23;20021;-82
2021/01/10 06:33:32;;;;;;;19.70;12.45;;;-0.10;99.90;;;;;;6195211;23;20092;-81
2021/01/10 06:36:02;;;;;;;17.73;12.10;;;-0.10;99.90;;;;;;6186152;23;20228;-80
2021/01/10 06:38:33;;;;;;;19.98;11.90;;;-0.20;99.90;;;;;;6185453;23;20025;-80
2021/01/10 06:41:21;;;;;;;20.30;11.88;;;-0.30;99.90;;;;;;6185084;23;20028;-80
2021/01/10 06:43:57;;;;;;;20.73;12.27;;;-0.40;99.90;;;;;;6185113;23;20029;-80
2021/01/10 06:46:24;;;;;;;82.53;42.10;;;-0.50;99.90;;;;;;6184590;23;20021;-80
2021/01/10 06:48:51;;;;;;;223.23;98.55;;;-0.70;99.90;;;;;;6186077;23;20096;-80
2021/01/10 06:51:21;;;;;;;248.90;106.20;;;-0.60;99.90;;;;;;6186384;23;20429;-80
2021/01/10 06:53:48;;;;;;;59.33;28.38;;;-0.60;99.90;;;;;;6184713;23;20031;-80
2021/01/10 06:56:16;;;;;;;49.67;24.27;;;-0.50;99.90;;;;;;6186245;23;20540;-80
2021/01/10 06:59:02;;;;;;;36.42;18.13;;;-0.40;99.90;;;;;;6185189;23;20092;-80
2021/01/10 07:01:56;;;;;;;25.08;14.48;;;-0.50;99.90;;;;;;6185480;23;20052;-80
2021/01/10 07:04:32;;;;;;;27.17;15.02;;;-0.50;99.90;;;;;;6183711;23;20072;-80
2021/01/10 07:06:58;;;;;;;27.35;14.18;;;-0.60;99.90;;;;;;6184808;23;20032;-80
2021/01/10 07:09:25;;;;;;;26.52;14.68;;;-0.60;99.90;;;;;;6187601;23;20076;-81
2021/01/10 07:11:51;;;;;;;25.00;13.55;;;-0.60;99.90;;;;;;6185368;23;20021;-80
2021/01/10 07:14:18;;;;;;;26.30;15.05;;;-0.60;99.90;;;;;;6187614;23;20337;-80
2021/01/10 07:16:45;;;;;;;28.33;15.60;;;-0.50;99.90;;;;;;6187460;23;20096;-80
2021/01/10 07:19:13;;;;;;;26.08;15.85;;;-0.60;99.90;;;;;;6161392;23;20025;-80
2021/01/10 07:21:50;;;;;;;26.30;14.57;;;-0.60;99.90;;;;;;6186920;23;20021;-80
2021/01/10 07:24:16;;;;;;;23.73;14.30;;;-0.60;99.90;;;;;;6187034;23;20075;-80
2021/01/10 07:26:59;;;;;;;26.95;13.98;;;-0.60;99.90;;;;;;6187617;23;20025;-80
2021/01/10 07:29:41;;;;;;;27.60;14.95;;;-0.40;99.90;;;;;;6187513;23;20075;-80
2021/01/10 07:32:14;;;;;;;21.88;14.50;;;-0.30;99.90;;;;;;6187245;23;20021;-80
2021/01/10 07:34:46;;;;;;;24.77;13.00;;;-0.30;99.90;;;;;;6161620;23;20146;-80
2021/01/10 07:37:15;;;;;;;21.13;13.55;;;-0.20;99.90;;;;;;6161179;23;20021;-80
2021/01/10 07:39:58;;;;;;;24.42;14.02;;;-0.20;99.90;;;;;;6161405;23;20029;-80
2021/01/10 07:42:29;;;;;;;23.52;13.35;;;-0.20;99.90;;;;;;6162167;23;20025;-81
2021/01/10 07:45:20;;;;;;;21.85;13.20;;;-0.10;99.90;;;;;;6161747;23;20028;-80
2021/01/10 07:47:48;;;;;;;20.73;12.55;;;0.00;99.90;;;;;;6161283;23;20060;-81
2021/01/10 07:50:17;;;;;;;27.33;18.17;;;0.00;99.90;;;;;;6187361;23;20044;-81
2021/01/10 07:52:48;;;;;;;20.55;14.00;;;0.00;99.90;;;;;;6187839;23;20021;-81
2021/01/10 07:55:18;;;;;;;24.88;15.35;;;0.00;99.90;;;;;;6161359;23;20095;-80
2021/01/10 07:58:01;;;;;;;25.25;14.68;;;0.00;99.90;;;;;;6161293;23;20111;-81
2021/01/10 08:00:30;;;;;;;19.70;13.15;;;0.00;99.90;;;;;;6162460;23;20029;-81
2021/01/10 08:03:03;;;;;;;20.88;12.90;;;0.10;99.90;;;;;;6189671;23;20032;-80
2021/01/10 08:05:35;;;;;;;18.38;12.00;;;0.10;99.90;;;;;;6189023;23;20052;-80
2021/01/10 08:08:14;;;;;;;20.08;12.18;;;0.10;99.90;;;;;;6189311;23;20048;-81
2021/01/10 08:10:48;;;;;;;19.60;12.05;;;0.10;99.90;;;;;;6163422;23;20021;-80
2021/01/10 08:13:26;;;;;;;23.73;13.25;;;0.10;99.90;;;;;;6188823;23;20486;-80
2021/01/10 08:15:54;;;;;;;21.77;12.73;;;0.10;99.90;;;;;;6189545;23;20039;-80
2021/01/10 08:18:22;;;;;;;19.10;12.65;;;0.10;99.90;;;;;;6169116;23;20052;-82
2021/01/10 08:20:52;;;;;;;23.00;14.05;;;0.20;99.90;;;;;;6194543;23;20064;-82
2021/01/10 08:23:19;;;;;;;21.25;14.15;;;0.20;99.90;;;;;;6168247;23;20029;-80
2021/01/10 08:25:47;;;;;;;20.40;13.73;;;0.30;99.90;;;;;;6186799;23;20025;-80
2021/01/10 08:28:19;;;;;;;33.17;19.75;;;0.20;99.90;;;;;;6187026;23;20056;-80
2021/01/10 08:30:46;;;;;;;39.92;23.10;;;0.20;99.90;;;;;;6161310;23;20532;-81
2021/01/10 08:33:17;;;;;;;46.47;24.77;;;0.30;99.90;;;;;;6187538;23;20028;-81
2021/01/10 08:35:44;;;;;;;50.95;26.83;;;0.40;99.90;;;;;;6188126;23;20045;-81
2021/01/10 08:38:11;;;;;;;25.10;17.00;;;0.50;99.90;;;;;;6162190;23;20100;-81
2021/01/10 08:40:38;;;;;;;30.77;17.45;;;0.60;99.90;;;;;;6187838;23;20025;-81
2021/01/10 08:43:04;;;;;;;23.45;13.25;;;0.80;99.90;;;;;;6188329;23;20025;-81
2021/01/10 08:45:31;;;;;;;14.20;10.55;;;0.90;99.90;;;;;;6188858;23;20408;-81
2021/01/10 08:48:02;;;;;;;17.80;11.70;;;1.10;99.90;;;;;;6188138;23;20021;-81
2021/01/10 08:50:38;;;;;;;18.30;11.95;;;1.40;99.90;;;;;;6161518;23;20056;-80
2021/01/10 08:53:05;;;;;;;17.45;12.30;;;1.70;99.90;;;;;;6162150;23;20057;-81
2021/01/10 08:55:33;;;;;;;14.80;10.93;;;2.00;99.90;;;;;;6188706;23;20028;-81
2021/01/10 08:58:00;;;;;;;14.88;11.05;;;2.30;99.90;;;;;;6162831;23;20049;-81
2021/01/10 09:00:27;;;;;;;15.52;10.55;;;2.60;99.90;;;;;;6163193;23;20236;-81
2021/01/10 09:02:54;;;;;;;16.73;10.55;;;2.80;99.90;;;;;;6162785;23;20079;-82
2021/01/10 09:05:27;;;;;;;21.67;14.48;;;2.90;99.90;;;;;;6189662;23;20052;-81
2021/01/10 09:08:02;;;;;;;24.30;16.67;;;3.00;99.90;;;;;;6189794;23;20401;-80
2021/01/10 09:10:32;;;;;;;14.88;11.00;;;3.10;99.90;;;;;;6188513;23;20056;-81
2021/01/10 09:13:06;;;;;;;11.23;8.50;;;3.20;99.90;;;;;;6189649;23;20049;-81
2021/01/10 09:15:37;;;;;;;12.52;8.63;;;3.10;99.90;;;;;;6189973;23;20096;-80
2021/01/10 09:18:09;;;;;;;12.13;9.55;;;3.10;99.90;;;;;;6189777;23;20056;-81
2021/01/10 09:20:41;;;;;;;10.90;8.48;;;3.10;99.90;;;;;;6189251;23;20052;-80
2021/01/10 09:23:09;;;;;;;13.65;8.88;;;3.10;99.90;;;;;;6189401;23;20045;-80
2021/01/10 09:25:35;;;;;;;15.63;8.90;;;3.00;99.90;;;;;;6189469;23;20021;-81
2021/01/10 09:28:14;;;;;;;12.85;8.80;;;2.80;99.90;;;;;;6162791;23;20391;-80
2021/01/10 09:30:44;;;;;;;11.38;8.60;;;2.50;99.90;;;;;;6161196;23;20056;-80
2021/01/10 09:33:12;;;;;;;19.30;10.13;;;2.30;99.90;;;;;;6161950;23;20021;-81
2021/01/10 09:35:43;;;;;;;17.60;10.50;;;2.10;99.90;;;;;;6161925;23;20514;-80
2021/01/10 09:38:14;;;;;;;25.20;12.35;;;2.00;99.90;;;;;;6187442;23;20025;-80
2021/01/10 09:41:02;;;;;;;19.48;12.82;;;1.80;99.90;;;;;;6188879;23;20413;-80
2021/01/10 09:43:47;;;;;;;16.30;10.43;;;1.70;99.90;;;;;;6162764;23;20021;-80
2021/01/10 09:46:36;;;;;;;19.00;10.77;;;1.60;99.90;;;;;;6189721;23;20128;-80
2021/01/10 09:49:30;;;;;;;16.52;10.95;;;1.60;99.90;;;;;;6162844;23;20021;-81
2021/01/10 09:52:04;;;;;;;;;;;1.60;99.90;;;;;;6175482;23;20075;-80
2021/01/10 09:54:32;;;;;;;20.80;12.82;;;1.50;99.90;;;;;;6188671;23;19951;-81
2021/01/10 09:57:09;;;;;;;12.07;8.70;;;1.40;99.90;;;;;;6161671;23;20013;-80
2021/01/10 09:59:42;;;;;;;16.15;11.45;;;1.00;99.90;;;;;;6187770;23;20052;-80
2021/01/10 10:02:17;;;;;;;20.33;12.57;;;1.00;99.90;;;;;;6161210;23;20032;-80
2021/01/10 10:04:48;;;;;;;14.52;10.25;;;0.80;99.90;;;;;;6162445;23;20032;-80
2021/01/10 10:07:29;;;;;;;14.55;9.60;;;0.80;99.90;;;;;;6191952;23;20380;-82
2021/01/10 10:09:55;;;;;;;19.38;12.25;;;0.90;99.90;;;;;;6167448;23;20037;-81
2021/01/10 10:12:24;;;;;;;19.45;12.45;;;0.80;99.90;;;;;;6166264;23;20017;-80
2021/01/10 10:15:05;;;;;;;24.90;14.07;;;1.00;99.90;;;;;;6184526;23;20459;-80
2021/01/10 10:17:34;;;;;;;19.40;12.52;;;1.30;99.90;;;;;;6185745;23;20100;-80
2021/01/10 10:20:01;;;;;;;42.42;20.98;;;1.70;99.90;;;;;;6187048;23;20028;-81
2021/01/10 10:22:32;;;;;;;28.35;15.95;;;2.00;99.90;;;;;;6186368;23;20052;-80
2021/01/10 10:25:00;;;;;;;16.75;9.88;;;2.40;99.90;;;;;;6187043;23;20025;-80
2021/01/10 10:27:30;;;;;;;15.68;10.38;;;2.70;99.90;;;;;;6185528;23;20025;-80
2021/01/10 10:29:58;;;;;;;16.08;11.95;;;2.80;99.90;;;;;;6186841;23;20536;-80
2021/01/10 10:32:25;;;;;;;102.13;66.95;;;2.90;99.90;;;;;;6187144;23;20112;-80
2021/01/10 10:34:53;;;;;;;15.77;11.73;;;2.90;99.90;;;;;;6187561;23;20472;-80
2021/01/10 10:37:20;;;;;;;13.80;9.73;;;3.20;99.90;;;;;;6185638;23;20099;-81
2021/01/10 10:39:47;;;;;;;15.20;10.52;;;3.50;99.90;;;;;;6187393;23;20052;-81
2021/01/10 10:42:17;;;;;;;18.25;11.63;;;3.50;99.90;;;;;;6187262;23;20059;-80
2021/01/10 10:44:46;;;;;;;13.07;9.40;;;3.60;99.90;;;;;;6187672;23;20028;-80
2021/01/10 10:47:14;;;;;;;11.25;8.77;;;3.50;99.90;;;;;;6186184;23;20033;-80
2021/01/10 10:49:42;;;;;;;12.52;9.60;;;3.50;99.90;;;;;;6185202;23;20067;-80
2021/01/10 10:52:10;;;;;;;19.20;12.80;;;3.50;99.90;;;;;;6185736;23;20021;-80
2021/01/10 10:54:36;;;;;;;18.98;13.32;;;3.00;99.90;;;;;;6187552;23;20021;-80
2021/01/10 10:57:03;;;;;;;22.30;16.58;;;2.90;99.90;;;;;;6185905;23;20017;-80
2021/01/10 10:59:29;;;;;;;14.82;8.98;;;2.90;99.90;;;;;;6187480;23;20031;-80
2021/01/10 11:01:56;;;;;;;13.05;8.95;;;3.20;99.90;;;;;;6187351;23;20031;-80
2021/01/10 11:04:22;;;;;;;12.20;8.70;;;3.20;99.90;;;;;;6187171;23;20024;-79
2021/01/10 11:06:49;;;;;;;10.23;8.15;;;3.10;99.90;;;;;;6187397;23;20451;-79
2021/01/10 11:09:15;;;;;;;12.40;9.10;;;3.30;99.90;;;;;;6185501;23;20017;-80
2021/01/10 11:11:45;;;;;;;13.32;9.10;;;3.70;99.90;;;;;;6187464;23;20052;-80
2021/01/10 11:14:16;;;;;;;13.10;9.07;;;4.00;99.90;;;;;;6187432;23;20025;-79
2021/01/10 11:16:46;;;;;;;10.95;8.18;;;4.20;99.90;;;;;;6187656;23;20029;-80
2021/01/10 11:19:13;;;;;;;11.40;8.75;;;4.90;99.90;;;;;;6186655;23;20021;-79
2021/01/10 11:21:41;;;;;;;11.57;9.02;;;6.60;99.90;;;;;;6185423;23;20021;-80
2021/01/10 11:24:08;;;;;;;12.75;8.93;;;7.80;99.90;;;;;;6186582;23;20067;-80
2021/01/10 11:26:36;;;;;;;10.52;9.07;;;7.70;96.60;;;;;;6184873;23;20363;-80
2021/01/10 11:29:06;;;;;;;12.40;10.45;;;8.40;96.30;;;;;;6186985;23;20048;-80
2021/01/10 11:31:34;;;;;;;14.98;10.45;;;9.30;91.90;;;;;;6186381;23;20467;-79
2021/01/10 11:34:02;;;;;;;26.70;18.70;;;9.90;89.00;;;;;;6185395;23;20021;-79
2021/01/10 11:36:28;;;;;;;17.80;13.65;;;10.50;84.80;;;;;;6188672;23;20403;-80
2021/01/10 11:38:55;;;;;;;20.52;11.65;;;10.20;83.00;;;;;;6188328;23;20024;-80
2021/01/10 11:41:21;;;;;;;10.02;8.52;;;10.40;79.60;;;;;;6188372;23;20021;-79
2021/01/10 11:43:49;;;;;;;11.27;9.95;;;9.70;81.40;;;;;;6188795;23;20063;-79
2021/01/10 11:46:16;;;;;;;439.67;315.60;;;9.80;85.90;;;;;;6188684;23;20061;-80
2021/01/10 11:48:43;;;;;;;190.15;130.65;;;9.70;85.10;;;;;;6188655;23;20017;-80
2021/01/10 11:51:13;;;;;;;199.90;125.68;;;9.30;88.50;;;;;;6188648;23;20028;-80
2021/01/10 11:53:39;;;;;;;401.27;273.65;;;10.20;86.20;;;;;;6187181;23;20052;-80
2021/01/10 11:56:06;;;;;;;367.73;240.18;;;11.20;82.70;;;;;;6190317;23;20047;-80
2021/01/10 11:58:33;;;;;;;504.20;339.67;;;11.90;76.70;;;;;;6191898;23;20024;-81
2021/01/10 12:00:59;;;;;;;554.42;398.05;;;12.80;72.80;;;;;;6187333;23;20031;-79
2021/01/10 12:03:26;;;;;;;327.75;226.60;;;11.50;73.50;;;;;;6185876;23;20100;-79
2021/01/10 12:05:53;;;;;;;243.68;162.52;;;9.60;80.10;;;;;;6187084;23;20554;-79
2021/01/10 12:08:21;;;;;;;414.30;288.45;;;7.80;89.40;;;;;;6187110;23;20029;-78
2021/01/10 12:10:48;;;;;;;373.85;264.90;;;8.00;93.40;;;;;;6187738;23;20033;-79
2021/01/10 12:13:15;;;;;;;105.50;71.60;;;8.50;93.10;;;;;;6185814;23;20056;-80
2021/01/10 12:15:41;;;;;;;42.95;32.08;;;8.80;89.80;;;;;;6186293;23;20021;-80
2021/01/10 12:18:09;;;;;;;150.20;118.13;;;9.30;87.20;;;;;;6187748;23;20056;-79
2021/01/10 12:20:35;;;;;;;279.83;251.60;;;9.90;82.70;;;;;;6187903;23;20048;-79
2021/01/10 12:23:02;;;;;;;42.63;38.88;;;10.20;83.40;;;;;;6188580;23;20028;-79
2021/01/10 12:25:29;;;;;;;11.02;9.82;;;10.20;79.30;;;;;;6188282;23;20041;-80
2021/01/10 12:27:56;;;;;;;9.73;8.52;;;9.60;81.90;;;;;;6188673;23;20329;-79
2021/01/10 12:30:22;;;;;;;11.57;9.40;;;9.70;83.80;;;;;;6188407;23;20120;-80
2021/01/10 12:32:50;;;;;;;10.23;8.98;;;10.00;84.10;;;;;;6186998;23;20017;-79
2021/01/10 12:35:18;;;;;;;9.60;8.30;;;11.40;79.30;;;;;;6188646;23;20083;-79
2021/01/10 12:37:48;;;;;;;9.18;7.82;;;11.70;76.50;;;;;;6188065;23;20072;-79
2021/01/10 12:40:16;;;;;;;9.80;8.35;;;11.10;75.80;;;;;;6188466;23;20025;-79
2021/01/10 12:42:43;;;;;;;10.63;8.80;;;10.70;78.50;;;;;;6188239;23;20352;-79
2021/01/10 12:45:12;;;;;;;10.32;8.45;;;8.80;84.90;;;;;;6187873;23;20060;-79
2021/01/10 12:47:45;;;;;;;11.77;9.27;;;8.30;90.20;;;;;;6188535;23;20063;-79
2021/01/10 12:50:14;;;;;;;11.75;9.13;;;8.10;90.90;;;;;;6186379;23;20048;-79